Brandon, Nebraska
Current Conditions -  °F | °C
As of 5:35 AM on Saturday 20 Dec 2014 (Local Time) from KOGA Reporting Station
Clear Clear  
Wind Chill: 14°   Ceiling: Unl
Heat Index: 14°   Visibility: 10mi
Dew Point: 12°   Wind: 3mph
Humidity: 93%   Direction: 260°W
Pressure: 30"   Gusts: NA
Location:  40.8511°N, 101.706°W
Report Text: KOGA 201235Z AUTO 26003KT 10SM CLR M10/M11 A3000 RMK AO2 T11011111
Loading
Personal Weather Stations






























Interactive Weather Map New forecast layout! Learn more

10-Day Weather Forecast

Advertisements
Track Severe Weather on mobile